createdAt,value
2019-05-11T00:00:02.681Z,8.00
2019-05-11T00:01:02.686Z,7.93
2019-05-11T00:02:02.662Z,7.93
2019-05-11T00:03:02.646Z,7.88
2019-05-11T00:04:02.658Z,7.90
2019-05-11T00:05:02.636Z,7.88
2019-05-11T00:06:02.616Z,7.83
2019-05-11T00:07:02.606Z,7.70
2019-05-11T00:08:02.643Z,7.66
2019-05-11T00:09:02.595Z,7.66
2019-05-11T00:10:02.575Z,7.56
2019-05-11T00:11:02.574Z,7.56
2019-05-11T00:12:02.563Z,7.54
2019-05-11T00:13:02.553Z,7.45
2019-05-11T00:14:02.577Z,7.39
2019-05-11T00:15:02.520Z,7.38
2019-05-11T00:16:02.513Z,7.33
2019-05-11T00:17:02.540Z,7.23
2019-05-11T00:18:02.517Z,7.21
2019-05-11T00:19:02.474Z,7.14
2019-05-11T00:20:02.899Z,7.20
2019-05-11T00:21:02.450Z,7.10
2019-05-11T00:22:02.434Z,7.13
2019-05-11T00:23:02.425Z,7.23
2019-05-11T00:24:02.423Z,7.24
2019-05-11T00:25:02.409Z,7.31
2019-05-11T00:26:02.391Z,7.21
2019-05-11T00:27:02.396Z,7.33
2019-05-11T00:28:02.400Z,7.32
2019-05-11T00:29:02.364Z,7.32
2019-05-11T00:30:02.362Z,7.29
2019-05-11T00:31:02.343Z,7.29
2019-05-11T00:32:02.338Z,7.48
2019-05-11T00:33:02.315Z,7.40
2019-05-11T00:34:02.300Z,7.47
2019-05-11T00:35:02.308Z,7.50
2019-05-11T00:36:02.282Z,7.50
2019-05-11T00:37:02.288Z,7.54
2019-05-11T00:38:02.274Z,7.48
2019-05-11T00:39:02.253Z,7.53
2019-05-11T00:40:13.881Z,7.56
2019-05-11T00:41:03.244Z,7.60
2019-05-11T00:42:02.213Z,7.53
2019-05-11T00:43:02.203Z,7.60
2019-05-11T00:44:02.197Z,7.61
2019-05-11T00:45:02.179Z,7.58
2019-05-11T00:46:02.192Z,7.56
2019-05-11T00:47:02.174Z,7.56
2019-05-11T00:48:02.153Z,7.61
2019-05-11T00:49:02.141Z,7.61
2019-05-11T00:50:02.124Z,7.60
2019-05-11T00:51:02.112Z,7.63
2019-05-11T00:52:02.152Z,7.60
2019-05-11T00:53:02.100Z,7.75
2019-05-11T00:54:02.079Z,7.72
2019-05-11T00:55:02.070Z,7.69
2019-05-11T00:56:02.067Z,7.73
2019-05-11T00:57:02.069Z,7.70
2019-05-11T00:58:02.042Z,7.66
2019-05-11T00:59:02.027Z,7.67
2019-05-11T01:00:02.022Z,7.72
2019-05-11T01:01:02.019Z,7.70
2019-05-11T01:02:01.999Z,7.79
2019-05-11T01:03:01.989Z,7.73
2019-05-11T01:04:02.027Z,7.69
2019-05-11T01:05:01.960Z,7.73
2019-05-11T01:06:01.964Z,7.72
2019-05-11T01:07:01.938Z,7.76
2019-05-11T01:08:01.948Z,7.79
2019-05-11T01:09:01.925Z,7.79
2019-05-11T01:10:01.917Z,7.87
2019-05-11T01:11:01.892Z,7.85
2019-05-11T01:12:01.888Z,7.95
2019-05-11T01:13:01.881Z,7.88
2019-05-11T01:14:01.867Z,7.80
2019-05-11T01:15:01.858Z,7.80
2019-05-11T01:16:01.841Z,7.80
2019-05-11T01:17:01.831Z,7.82
2019-05-11T01:18:01.814Z,7.82
2019-05-11T01:19:01.803Z,7.82
2019-05-11T01:20:01.799Z,7.69
2019-05-11T01:21:01.779Z,7.72
2019-05-11T01:22:01.774Z,7.61
2019-05-11T01:23:01.783Z,7.67
2019-05-11T01:24:01.752Z,7.53
2019-05-11T01:25:01.828Z,7.57
2019-05-11T01:26:01.764Z,7.51
2019-05-11T01:27:01.717Z,7.48
2019-05-11T01:28:01.707Z,7.39
2019-05-11T01:29:01.695Z,7.39
2019-05-11T01:30:01.693Z,7.39
2019-05-11T01:31:01.676Z,7.32
2019-05-11T01:32:01.678Z,7.25
2019-05-11T01:33:01.646Z,7.33
2019-05-11T01:34:01.644Z,7.29
2019-05-11T01:35:01.670Z,7.24
2019-05-11T01:36:01.656Z,7.17
2019-05-11T01:37:01.601Z,7.10
2019-05-11T01:38:01.597Z,7.05
2019-05-11T01:39:01.581Z,7.05
2019-05-11T01:40:01.570Z,6.99
2019-05-11T01:41:01.564Z,6.95
2019-05-11T01:42:01.560Z,6.95
2019-05-11T01:43:01.575Z,6.93
2019-05-11T01:44:08.346Z,6.85
2019-05-11T01:45:01.514Z,6.82
2019-05-11T01:46:01.531Z,6.81
2019-05-11T01:47:01.603Z,6.74
2019-05-11T01:48:01.483Z,6.77
2019-05-11T01:49:01.478Z,6.77
2019-05-11T01:50:01.468Z,6.78
2019-05-11T01:51:01.446Z,6.75
2019-05-11T01:52:01.434Z,6.67
2019-05-11T01:53:01.449Z,6.74
2019-05-11T01:54:01.417Z,6.62
2019-05-11T01:55:01.401Z,6.69
2019-05-11T01:56:01.396Z,6.59
2019-05-11T01:57:01.414Z,6.59
2019-05-11T01:58:01.375Z,6.62
2019-05-11T01:59:01.366Z,6.63
2019-05-11T02:00:01.347Z,6.62
2019-05-11T02:01:01.341Z,6.63
2019-05-11T02:02:01.327Z,6.66
2019-05-11T02:03:01.332Z,6.74
2019-05-11T02:04:01.305Z,6.70
2019-05-11T02:05:01.302Z,6.74
2019-05-11T02:06:01.279Z,6.75
2019-05-11T02:07:01.272Z,6.70
2019-05-11T02:08:01.256Z,6.70
2019-05-11T02:09:01.305Z,6.67
2019-05-11T02:10:01.231Z,6.67
2019-05-11T02:11:14.965Z,6.62
2019-05-11T02:12:02.209Z,6.52
2019-05-11T02:13:01.213Z,6.67
2019-05-11T02:14:01.188Z,6.66
2019-05-11T02:15:01.212Z,6.59
2019-05-11T02:16:01.181Z,6.63
2019-05-11T02:17:01.175Z,6.67
2019-05-11T02:18:01.190Z,6.62
2019-05-11T02:19:01.155Z,6.59
2019-05-11T02:20:01.154Z,6.52
2019-05-11T02:21:01.126Z,6.45
2019-05-11T02:22:01.108Z,6.56
2019-05-11T02:23:01.097Z,6.51
2019-05-11T02:24:01.091Z,6.51
2019-05-11T02:25:01.068Z,6.30
2019-05-11T02:26:01.063Z,6.30
2019-05-11T02:27:01.044Z,6.33
2019-05-11T02:28:01.034Z,6.27
2019-05-11T02:29:01.021Z,6.22
2019-05-11T02:30:01.040Z,6.14
2019-05-11T02:31:00.994Z,6.12
2019-05-11T02:32:00.982Z,6.16
2019-05-11T02:33:00.970Z,6.08
2019-05-11T02:34:00.971Z,6.07
2019-05-11T02:35:00.985Z,6.11
2019-05-11T02:36:00.963Z,6.01
2019-05-11T02:37:00.925Z,6.04
2019-05-11T02:38:00.917Z,6.09
2019-05-11T02:39:00.912Z,6.14
2019-05-11T02:40:00.896Z,6.20
2019-05-11T02:41:00.918Z,6.17
2019-05-11T02:42:00.882Z,6.31
2019-05-11T02:43:00.859Z,6.31
2019-05-11T02:44:00.856Z,6.27
2019-05-11T02:45:00.839Z,6.27
2019-05-11T02:46:00.828Z,6.27
2019-05-11T02:47:00.827Z,6.31
2019-05-11T02:48:00.811Z,6.22
2019-05-11T02:49:00.792Z,6.24
2019-05-11T02:50:00.782Z,6.27
2019-05-11T02:51:00.781Z,6.22
2019-05-11T02:52:00.771Z,6.26
2019-05-11T02:53:00.744Z,6.14
2019-05-11T02:54:00.739Z,6.14
2019-05-11T02:55:00.721Z,6.19
2019-05-11T02:56:00.729Z,6.09
2019-05-11T02:57:00.725Z,6.11
2019-05-11T02:58:00.689Z,6.01
2019-05-11T02:59:00.695Z,5.98
2019-05-11T03:00:00.684Z,5.98
2019-05-11T03:01:00.675Z,5.90
2019-05-11T03:02:00.680Z,5.99
2019-05-11T03:03:00.782Z,5.94
2019-05-11T03:04:00.628Z,5.99
2019-05-11T03:05:00.617Z,5.97
2019-05-11T03:06:00.617Z,6.04
2019-05-11T03:07:00.606Z,5.98
2019-05-11T03:08:00.602Z,6.02
2019-05-11T03:09:00.575Z,5.98
2019-05-11T03:10:00.563Z,5.99
2019-05-11T03:11:00.564Z,6.02
2019-05-11T03:12:00.554Z,6.05
2019-05-11T03:13:00.558Z,6.04
2019-05-11T03:14:00.558Z,6.05
2019-05-11T03:15:00.507Z,6.02
2019-05-11T03:16:00.510Z,6.07
2019-05-11T03:17:00.489Z,6.04
2019-05-11T03:18:00.482Z,6.04
2019-05-11T03:19:00.483Z,6.07
2019-05-11T03:20:00.451Z,6.07
2019-05-11T03:21:00.446Z,6.05
2019-05-11T03:22:00.431Z,6.08
2019-05-11T03:23:00.423Z,6.01
2019-05-11T03:24:00.443Z,6.04
2019-05-11T03:25:00.424Z,6.08
2019-05-11T03:26:00.389Z,6.02
2019-05-11T03:27:00.376Z,6.07
2019-05-11T03:28:00.363Z,6.02
2019-05-11T03:29:00.366Z,6.01
2019-05-11T03:30:01.716Z,5.98
2019-05-11T03:31:00.347Z,5.98
2019-05-11T03:32:00.353Z,5.98
2019-05-11T03:33:00.333Z,5.93
2019-05-11T03:34:00.302Z,5.98
2019-05-11T03:35:00.355Z,6.05
2019-05-11T03:36:00.282Z,5.99
2019-05-11T03:37:00.271Z,6.05
2019-05-11T03:38:00.253Z,6.12
2019-05-11T03:39:00.247Z,6.09
2019-05-11T03:40:00.234Z,6.08
2019-05-11T03:41:00.229Z,6.14
2019-05-11T03:42:13.813Z,6.17
2019-05-11T03:43:01.202Z,6.17
2019-05-11T03:44:00.181Z,6.22
2019-05-11T03:45:00.178Z,6.28
2019-05-11T03:46:00.199Z,6.35
2019-05-11T03:47:00.179Z,6.45
2019-05-11T03:48:00.139Z,6.60
2019-05-11T03:49:00.138Z,6.49
2019-05-11T03:50:00.121Z,6.69
2019-05-11T03:51:00.104Z,6.72
2019-05-11T03:52:00.105Z,6.60
2019-05-11T03:53:00.082Z,6.77
2019-05-11T03:54:00.071Z,6.78
2019-05-11T03:55:00.065Z,6.92
2019-05-11T03:56:00.053Z,6.95
2019-05-11T03:57:00.059Z,6.95
2019-05-11T03:58:00.029Z,6.97
2019-05-11T03:59:00.019Z,7.07
2019-05-11T04:00:00.017Z,7.10
2019-05-11T04:01:00.003Z,7.13
2019-05-11T04:01:59.988Z,7.23
2019-05-11T04:02:59.979Z,7.21
2019-05-11T04:03:59.976Z,7.31
2019-05-11T04:04:59.953Z,7.33
2019-05-11T04:05:59.945Z,7.29
2019-05-11T04:06:59.934Z,7.32
2019-05-11T04:07:59.940Z,7.45
2019-05-11T04:08:59.924Z,7.39
2019-05-11T04:09:59.898Z,7.45
2019-05-11T04:10:59.885Z,7.45
2019-05-11T04:11:59.877Z,7.47
2019-05-11T04:12:59.875Z,7.56
2019-05-11T04:13:59.871Z,7.57
2019-05-11T04:14:59.858Z,7.51
2019-05-11T04:15:59.835Z,7.54
2019-05-11T04:16:59.815Z,7.60
2019-05-11T04:17:59.809Z,7.54
2019-05-11T04:18:59.826Z,7.60
2019-05-11T04:19:59.781Z,7.60
2019-05-11T04:20:59.776Z,7.58
2019-05-11T04:21:59.766Z,7.63
2019-05-11T04:22:59.751Z,7.63
2019-05-11T04:23:59.736Z,7.75
2019-05-11T04:24:59.742Z,7.76
2019-05-11T04:25:59.721Z,7.82
2019-05-11T04:26:59.702Z,7.88
2019-05-11T04:27:59.709Z,7.83
2019-05-11T04:28:59.690Z,7.93
2019-05-11T04:29:59.677Z,8.05
2019-05-11T04:30:59.674Z,8.06
2019-05-11T04:31:59.658Z,8.13
2019-05-11T04:32:59.644Z,8.10
2019-05-11T04:33:59.626Z,8.31
2019-05-11T04:34:59.621Z,8.31
2019-05-11T04:35:59.650Z,8.36
2019-05-11T04:36:59.593Z,8.46
2019-05-11T04:37:59.597Z,8.58
2019-05-11T04:38:59.576Z,8.61
2019-05-11T04:39:59.562Z,8.66
2019-05-11T04:40:59.555Z,8.74
2019-05-11T04:41:59.556Z,8.76
2019-05-11T04:42:59.555Z,8.82
2019-05-11T04:43:59.529Z,8.85
2019-05-11T04:44:59.505Z,8.91
2019-05-11T04:45:59.491Z,8.91
2019-05-11T04:46:59.511Z,8.87
2019-05-11T04:47:59.480Z,8.87
2019-05-11T04:48:59.467Z,8.82
2019-05-11T04:49:59.451Z,8.94
2019-05-11T04:50:59.444Z,9.02
2019-05-11T04:51:59.434Z,9.04
2019-05-11T04:52:59.434Z,9.11
2019-05-11T04:53:59.408Z,9.03
2019-05-11T04:54:59.409Z,9.21
2019-05-11T04:55:59.390Z,9.19
2019-05-11T04:56:59.394Z,9.14
2019-05-11T04:57:59.367Z,9.19
2019-05-11T04:58:59.371Z,9.21
2019-05-11T04:59:59.349Z,9.25
2019-05-11T05:00:59.336Z,9.26
2019-05-11T05:01:59.340Z,9.34
2019-05-11T05:02:59.321Z,9.37
2019-05-11T05:04:13.521Z,9.43
2019-05-11T05:05:00.291Z,9.55
2019-05-11T05:06:20.853Z,9.51
2019-05-11T05:07:05.132Z,9.51
2019-05-11T05:08:09.025Z,9.59
2019-05-11T05:09:03.807Z,9.58
2019-05-11T05:09:59.229Z,9.64
2019-05-11T05:11:00.784Z,9.68
2019-05-11T05:11:59.212Z,9.80
2019-05-11T05:13:10.311Z,9.72
2019-05-11T05:14:01.872Z,9.79
2019-05-11T05:15:00.175Z,9.74
2019-05-11T05:15:59.175Z,9.83
2019-05-11T05:16:59.151Z,9.87
2019-05-11T05:17:59.140Z,9.83
2019-05-11T05:18:59.137Z,10.01
2019-05-11T05:19:59.122Z,9.99
2019-05-11T05:20:59.110Z,10.09
2019-05-11T05:21:59.097Z,10.19
2019-05-11T05:22:59.086Z,10.12
2019-05-11T05:23:59.110Z,10.16
2019-05-11T05:24:59.068Z,10.31
2019-05-11T05:25:59.055Z,10.35
2019-05-11T05:26:59.045Z,10.35
2019-05-11T05:27:59.085Z,10.46
2019-05-11T05:28:59.051Z,10.53
2019-05-11T05:29:59.012Z,10.56
2019-05-11T05:30:58.991Z,10.57
2019-05-11T05:31:58.992Z,10.53
2019-05-11T05:32:58.974Z,10.59
2019-05-11T05:34:01.380Z,10.60
2019-05-11T05:34:58.984Z,10.69
2019-05-11T05:35:58.939Z,10.63
2019-05-11T05:36:58.970Z,10.81
2019-05-11T05:37:58.929Z,10.79
2019-05-11T05:38:58.958Z,10.75
2019-05-11T05:39:58.901Z,10.79
2019-05-11T05:40:58.894Z,10.90
2019-05-11T05:41:58.870Z,10.94
2019-05-11T05:42:58.857Z,10.97
2019-05-11T05:43:58.868Z,11.00
2019-05-11T05:44:58.843Z,11.05
2019-05-11T05:45:58.827Z,11.02
2019-05-11T05:46:58.817Z,11.05
2019-05-11T05:47:58.815Z,10.99
2019-05-11T05:48:58.800Z,11.04
2019-05-11T05:49:58.797Z,11.05
2019-05-11T05:50:58.771Z,11.00
2019-05-11T05:51:58.847Z,11.05
2019-05-11T05:52:58.749Z,11.11
2019-05-11T05:53:58.746Z,11.17
2019-05-11T05:54:58.739Z,11.17
2019-05-11T05:55:58.714Z,11.22
2019-05-11T05:56:58.743Z,11.27
2019-05-11T05:57:58.743Z,11.29
2019-05-11T05:58:58.686Z,11.30
2019-05-11T05:59:58.681Z,11.32
2019-05-11T06:00:58.661Z,11.32
2019-05-11T06:01:58.658Z,11.30
2019-05-11T06:02:58.647Z,11.32
2019-05-11T06:03:58.630Z,11.25
2019-05-11T06:04:58.631Z,11.35
2019-05-11T06:05:58.616Z,11.35
2019-05-11T06:06:58.619Z,11.32
2019-05-11T06:07:58.589Z,11.41
2019-05-11T06:08:58.613Z,11.37
2019-05-11T06:09:58.563Z,11.51
2019-05-11T06:10:58.608Z,11.50
2019-05-11T06:11:58.543Z,11.44
2019-05-11T06:12:58.523Z,11.48
2019-05-11T06:13:58.512Z,11.52
2019-05-11T06:14:58.503Z,11.41
2019-05-11T06:15:58.541Z,11.47
2019-05-11T06:16:58.514Z,11.59
2019-05-11T06:18:00.608Z,11.57
2019-05-11T06:18:58.514Z,11.59
2019-05-11T06:19:58.479Z,11.62
2019-05-11T06:20:58.433Z,11.55
2019-05-11T06:21:58.429Z,11.68
2019-05-11T06:22:58.434Z,11.68
2019-05-11T06:24:05.458Z,11.68
2019-05-11T06:24:59.389Z,11.69
2019-05-11T06:25:58.384Z,11.80
2019-05-11T06:26:58.378Z,11.83
2019-05-11T06:27:58.385Z,11.90
2019-05-11T06:28:58.357Z,11.97
2019-05-11T06:29:58.335Z,12.02
2019-05-11T06:30:58.330Z,12.13
2019-05-11T06:31:58.322Z,12.17
2019-05-11T06:32:58.342Z,12.21
2019-05-11T06:33:58.292Z,12.20
2019-05-11T06:34:58.284Z,12.21
2019-05-11T06:35:58.291Z,12.29
2019-05-11T06:36:58.260Z,12.24
2019-05-11T06:37:58.253Z,12.17
2019-05-11T06:38:58.238Z,12.20
2019-05-11T06:39:58.273Z,12.27
2019-05-11T06:40:58.229Z,12.45
2019-05-11T06:41:58.223Z,12.45
2019-05-11T06:42:58.195Z,12.46
2019-05-11T06:44:01.631Z,12.42
2019-05-11T06:44:58.166Z,12.50
2019-05-11T06:45:58.156Z,12.58
2019-05-11T06:46:58.180Z,12.61
2019-05-11T06:47:58.137Z,12.58
2019-05-11T06:48:58.131Z,12.73
2019-05-11T06:49:58.110Z,12.65
2019-05-11T06:50:58.110Z,12.62
2019-05-11T06:51:58.344Z,12.65
2019-05-11T06:52:58.087Z,12.80
2019-05-11T06:53:58.109Z,12.82
2019-05-11T06:54:58.057Z,12.87
2019-05-11T06:55:58.045Z,13.00
2019-05-11T06:56:58.034Z,13.04
2019-05-11T06:57:58.026Z,13.08
2019-05-11T06:58:58.029Z,13.01
2019-05-11T06:59:58.025Z,13.11
2019-05-11T07:00:58.034Z,13.04
2019-05-11T07:01:57.988Z,13.04
2019-05-11T07:02:57.964Z,13.11
2019-05-11T07:03:57.961Z,13.05
2019-05-11T07:04:57.967Z,13.16
2019-05-11T07:05:57.941Z,13.19
2019-05-11T07:06:57.929Z,13.12
2019-05-11T07:07:57.919Z,13.13
2019-05-11T07:08:57.914Z,13.30
2019-05-11T07:09:57.924Z,13.31
2019-05-11T07:10:57.884Z,13.28
2019-05-11T07:11:57.904Z,13.30
2019-05-11T07:12:57.861Z,13.28
2019-05-11T07:13:57.850Z,13.28
2019-05-11T07:14:57.842Z,13.35
2019-05-11T07:15:57.826Z,13.28
2019-05-11T07:16:57.824Z,13.23
2019-05-11T07:17:57.801Z,13.37
2019-05-11T07:18:57.789Z,13.44
2019-05-11T07:19:57.790Z,13.44
2019-05-11T07:20:57.766Z,13.59
2019-05-11T07:21:57.756Z,13.54
2019-05-11T07:22:57.761Z,13.59
2019-05-11T07:23:57.760Z,13.65
2019-05-11T07:24:57.774Z,13.68
2019-05-11T07:26:00.186Z,13.68
2019-05-11T07:26:57.735Z,13.87
2019-05-11T07:27:57.692Z,13.85
2019-05-11T07:28:57.684Z,13.79
2019-05-11T07:29:57.667Z,13.79
2019-05-11T07:30:57.666Z,13.85
2019-05-11T07:32:04.947Z,13.78
2019-05-11T07:33:01.056Z,13.70
2019-05-11T07:33:58.749Z,13.70
2019-05-11T07:34:57.818Z,13.71
2019-05-11T07:35:58.301Z,13.81
2019-05-11T07:36:57.750Z,13.72
2019-05-11T07:37:58.174Z,13.67
2019-05-11T07:38:58.144Z,13.70
2019-05-11T07:39:58.156Z,13.78
2019-05-11T07:40:58.223Z,13.83
2019-05-11T07:41:58.439Z,13.90
2019-05-11T07:42:58.973Z,13.92
2019-05-11T07:43:59.054Z,13.93
2019-05-11T07:44:58.257Z,13.96
2019-05-11T07:45:58.457Z,14.00
2019-05-11T07:46:58.655Z,13.99
2019-05-11T07:47:58.929Z,13.99
2019-05-11T07:48:58.506Z,13.97
2019-05-11T07:49:58.045Z,14.10
2019-05-11T07:50:58.449Z,14.11
2019-05-11T07:51:58.650Z,14.20
2019-05-11T07:52:58.842Z,14.28
2019-05-11T07:53:57.925Z,14.41
2019-05-11T07:54:58.052Z,14.40
2019-05-11T07:55:57.860Z,14.54
2019-05-11T07:56:58.408Z,14.60
2019-05-11T07:57:58.613Z,14.77
2019-05-11T07:58:58.029Z,14.78
2019-05-11T07:59:57.939Z,14.84
2019-05-11T08:00:58.216Z,14.88
2019-05-11T08:01:58.275Z,14.84
2019-05-11T08:02:58.535Z,14.86
2019-05-11T08:03:58.558Z,14.86
2019-05-11T08:04:58.698Z,15.07
2019-05-11T08:05:58.274Z,15.19
2019-05-11T08:06:58.427Z,15.24
2019-05-11T08:07:59.323Z,15.29
2019-05-11T08:08:58.850Z,15.35
2019-05-11T08:09:58.678Z,15.35
2019-05-11T08:10:58.678Z,15.46
2019-05-11T08:11:58.417Z,15.46
2019-05-11T08:12:58.762Z,15.55
2019-05-11T08:13:58.444Z,15.57
2019-05-11T08:15:05.944Z,15.68
2019-05-11T08:15:58.194Z,15.73
2019-05-11T08:16:59.483Z,15.80
2019-05-11T08:17:57.845Z,15.90
2019-05-11T08:18:58.825Z,15.88
2019-05-11T08:19:58.040Z,15.80
2019-05-11T08:20:58.287Z,15.83
2019-05-11T08:21:58.270Z,15.73
2019-05-11T08:22:58.699Z,15.73
2019-05-11T08:23:58.798Z,15.77
2019-05-11T08:24:58.586Z,15.68
2019-05-11T08:25:58.066Z,15.51
2019-05-11T08:26:58.248Z,15.40
2019-05-11T08:27:58.851Z,15.47
2019-05-11T08:28:57.865Z,15.43
2019-05-11T08:29:57.965Z,15.43
2019-05-11T08:30:57.898Z,15.44
2019-05-11T08:31:57.978Z,15.46
2019-05-11T08:32:58.206Z,15.55
2019-05-11T08:33:58.340Z,15.51
2019-05-11T08:34:58.056Z,15.57
2019-05-11T08:35:58.301Z,16.00
2019-05-11T08:36:58.413Z,16.58
2019-05-11T08:37:58.375Z,17.01
2019-05-11T08:38:58.520Z,17.52
2019-05-11T08:39:58.504Z,17.54
2019-05-11T08:40:59.007Z,18.01
2019-05-11T08:41:58.969Z,18.19
2019-05-11T08:42:58.290Z,18.35
2019-05-11T08:43:58.689Z,18.33
2019-05-11T08:45:14.678Z,18.16
2019-05-11T08:45:58.042Z,17.90
2019-05-11T08:46:58.255Z,17.71
2019-05-11T08:47:57.947Z,17.34
2019-05-11T08:48:59.354Z,16.97
2019-05-11T08:49:58.844Z,16.74
2019-05-11T08:50:58.158Z,16.47
2019-05-11T08:51:57.835Z,16.35
2019-05-11T08:52:58.056Z,16.21
2019-05-11T08:53:58.317Z,16.23
2019-05-11T08:54:57.774Z,16.20
2019-05-11T08:55:58.833Z,16.20
2019-05-11T08:56:58.742Z,16.23
2019-05-11T08:57:58.542Z,16.39
2019-05-11T08:58:58.813Z,16.51
2019-05-11T08:59:57.869Z,16.78
2019-05-11T09:00:58.263Z,16.90
2019-05-11T09:01:58.744Z,17.31
2019-05-11T09:02:58.251Z,17.87
2019-05-11T09:03:58.353Z,18.38
2019-05-11T09:04:58.852Z,18.47
2019-05-11T09:05:57.893Z,18.50
2019-05-11T09:06:58.706Z,18.44
2019-05-11T09:07:57.805Z,18.29
2019-05-11T09:08:58.343Z,18.00
2019-05-11T09:09:58.550Z,17.82
2019-05-11T09:10:58.253Z,17.71
2019-05-11T09:11:58.874Z,17.59
2019-05-11T09:12:58.860Z,17.46
2019-05-11T09:13:57.832Z,17.39
2019-05-11T09:14:58.128Z,17.02
2019-05-11T09:15:58.673Z,16.78
2019-05-11T09:16:57.787Z,16.74
2019-05-11T09:17:57.789Z,16.60
2019-05-11T09:18:58.131Z,16.54
2019-05-11T09:19:58.146Z,16.38
2019-05-11T09:20:57.713Z,16.39
2019-05-11T09:21:58.600Z,16.61
2019-05-11T09:22:58.714Z,16.89
2019-05-11T09:23:57.905Z,17.08
2019-05-11T09:24:58.250Z,17.27
2019-05-11T09:25:58.399Z,17.30
2019-05-11T09:26:58.391Z,17.30
2019-05-11T09:27:58.515Z,17.29
2019-05-11T09:28:58.264Z,17.42
2019-05-11T09:29:58.153Z,17.52
2019-05-11T09:30:57.793Z,17.38
2019-05-11T09:31:58.246Z,17.24
2019-05-11T09:32:58.108Z,17.19
2019-05-11T09:33:58.429Z,17.24
2019-05-11T09:34:57.982Z,17.38
2019-05-11T09:35:58.339Z,17.34
2019-05-11T09:36:58.414Z,17.39
2019-05-11T09:37:58.607Z,17.31
2019-05-11T09:38:58.099Z,17.33
2019-05-11T09:39:58.293Z,17.56
2019-05-11T09:40:58.416Z,17.76
2019-05-11T09:41:58.116Z,17.82
2019-05-11T09:42:58.330Z,17.98
2019-05-11T09:43:58.513Z,18.05
2019-05-11T09:44:57.776Z,18.19
2019-05-11T09:45:58.213Z,18.37
2019-05-11T09:47:00.029Z,18.38
2019-05-11T09:47:58.176Z,18.44
2019-05-11T09:48:56.137Z,18.40
2019-05-11T09:49:58.253Z,18.45
2019-05-11T09:50:58.575Z,18.45
2019-05-11T09:51:56.151Z,18.40
2019-05-11T09:52:58.118Z,18.13
2019-05-11T09:53:58.605Z,17.89
2019-05-11T09:54:57.985Z,17.72
2019-05-11T09:55:58.517Z,17.71
2019-05-11T09:56:57.829Z,17.52
2019-05-11T09:57:57.992Z,17.54
2019-05-11T09:58:58.020Z,17.36
2019-05-11T09:59:58.186Z,17.39
2019-05-11T10:00:58.440Z,17.45
2019-05-11T10:01:55.983Z,17.60
2019-05-11T10:02:57.713Z,17.57
2019-05-11T10:03:57.891Z,17.52
2019-05-11T10:04:57.822Z,17.60
2019-05-11T10:05:57.987Z,17.74
2019-05-11T10:06:58.373Z,17.65
2019-05-11T10:07:55.955Z,17.72
2019-05-11T10:08:57.888Z,17.60
2019-05-11T10:09:57.910Z,17.45
2019-05-11T10:10:57.929Z,17.51
2019-05-11T10:11:58.277Z,17.44
2019-05-11T10:12:55.863Z,17.54
2019-05-11T10:13:57.778Z,17.49
2019-05-11T10:14:55.835Z,17.36
2019-05-11T10:16:04.689Z,17.39
2019-05-11T10:16:58.455Z,17.48
2019-05-11T10:17:55.809Z,17.59
2019-05-11T10:18:55.793Z,17.68
2019-05-11T10:19:58.042Z,17.74
2019-05-11T10:20:55.773Z,17.64
2019-05-11T10:21:57.861Z,17.74
2019-05-11T10:22:57.925Z,17.74
2019-05-11T10:23:57.831Z,17.67
2019-05-11T10:24:58.055Z,17.71
2019-05-11T10:25:55.719Z,17.65
2019-05-11T10:26:57.845Z,17.70
2019-05-11T10:27:57.843Z,17.78
2019-05-11T10:28:55.696Z,17.72
2019-05-11T10:29:55.696Z,17.74
2019-05-11T10:30:57.697Z,17.78
2019-05-11T10:31:55.645Z,17.65
2019-05-11T10:32:57.765Z,17.74
2019-05-11T10:33:57.917Z,17.76
2019-05-11T10:34:55.622Z,17.79
2019-05-11T10:35:55.627Z,17.70
2019-05-11T10:36:57.770Z,17.67
2019-05-11T10:37:55.588Z,17.63
2019-05-11T10:38:55.575Z,17.56
2019-05-11T10:39:57.651Z,17.45
2019-05-11T10:40:57.990Z,17.52
2019-05-11T10:41:55.540Z,17.68
2019-05-11T10:42:55.543Z,17.76
2019-05-11T10:43:57.779Z,17.68
2019-05-11T10:44:55.502Z,17.56
2019-05-11T10:45:55.521Z,17.39
2019-05-11T10:46:55.486Z,17.33
2019-05-11T10:47:58.618Z,17.33
2019-05-11T10:48:58.767Z,17.22
2019-05-11T10:49:57.712Z,17.19
2019-05-11T10:50:57.508Z,17.38
2019-05-11T10:51:55.428Z,17.42
2019-05-11T10:52:55.415Z,17.49
2019-05-11T10:53:57.596Z,17.52
2019-05-11T10:54:55.405Z,17.34
2019-05-11T10:55:55.431Z,17.31
2019-05-11T10:56:57.732Z,17.20
2019-05-11T10:57:55.362Z,17.26
2019-05-11T10:58:55.375Z,17.30
2019-05-11T10:59:57.806Z,17.24
2019-05-11T11:00:55.331Z,17.33
2019-05-11T11:01:55.317Z,17.49
2019-05-11T11:02:55.310Z,17.46
2019-05-11T11:03:55.290Z,17.72
2019-05-11T11:04:55.280Z,17.70
2019-05-11T11:05:55.270Z,17.76
2019-05-11T11:06:55.295Z,17.79
2019-05-11T11:07:55.257Z,17.70
2019-05-11T11:08:55.283Z,17.54
2019-05-11T11:09:55.237Z,17.48
2019-05-11T11:10:55.217Z,17.16
2019-05-11T11:11:55.224Z,17.15
2019-05-11T11:12:55.195Z,16.99
2019-05-11T11:13:55.203Z,16.90
2019-05-11T11:14:55.176Z,16.83
2019-05-11T11:15:55.161Z,16.93
2019-05-11T11:16:55.147Z,16.94
2019-05-11T11:17:55.137Z,16.87
2019-05-11T11:18:55.146Z,16.90
2019-05-11T11:19:55.116Z,16.91
2019-05-11T11:20:55.105Z,16.79
2019-05-11T11:21:55.096Z,16.78
2019-05-11T11:22:55.084Z,16.72
2019-05-11T11:23:55.077Z,16.72
2019-05-11T11:24:55.068Z,16.66
2019-05-11T11:25:55.043Z,16.66
2019-05-11T11:26:55.032Z,16.68
2019-05-11T11:27:55.031Z,16.64
2019-05-11T11:28:55.010Z,16.66
2019-05-11T11:29:55.010Z,16.68
2019-05-11T11:30:54.990Z,16.75
2019-05-11T11:31:54.982Z,16.58
2019-05-11T11:32:54.971Z,16.57
2019-05-11T11:33:57.811Z,16.47
2019-05-11T11:34:54.976Z,16.54
2019-05-11T11:35:54.941Z,16.43
2019-05-11T11:36:54.933Z,16.41
2019-05-11T11:37:54.914Z,16.36
2019-05-11T11:38:54.907Z,16.41
2019-05-11T11:39:54.905Z,16.32
2019-05-11T11:40:54.894Z,16.31
2019-05-11T11:41:54.874Z,16.36
2019-05-11T11:42:54.863Z,16.38
2019-05-11T11:43:54.843Z,16.39
2019-05-11T11:44:54.862Z,16.46
2019-05-11T11:45:54.836Z,16.47
2019-05-11T11:46:55.490Z,16.56
2019-05-11T11:47:54.812Z,16.50
2019-05-11T11:48:54.793Z,16.58
2019-05-11T11:49:54.782Z,16.53
2019-05-11T11:50:54.779Z,16.47
2019-05-11T11:51:54.768Z,16.42
2019-05-11T11:52:54.748Z,16.39
2019-05-11T11:53:54.749Z,16.51
2019-05-11T11:54:54.727Z,16.47
2019-05-11T11:55:54.715Z,16.38
2019-05-11T11:56:54.716Z,16.43
2019-05-11T11:57:54.696Z,16.43
2019-05-11T11:58:54.676Z,16.42
2019-05-11T11:59:54.670Z,16.39
2019-05-11T12:00:54.653Z,16.46
2019-05-11T12:01:54.669Z,16.53
2019-05-11T12:02:54.636Z,16.66
2019-05-11T12:03:54.630Z,16.61
2019-05-11T12:04:54.609Z,16.64
2019-05-11T12:05:54.605Z,16.71
2019-05-11T12:06:54.591Z,16.69
2019-05-11T12:07:54.640Z,16.68
2019-05-11T12:08:54.570Z,16.74
2019-05-11T12:09:54.556Z,16.68
2019-05-11T12:10:54.555Z,16.74
2019-05-11T12:11:54.537Z,16.61
2019-05-11T12:12:54.521Z,16.75
2019-05-11T12:13:54.522Z,16.78
2019-05-11T12:14:54.499Z,16.78
2019-05-11T12:15:54.493Z,16.87
2019-05-11T12:17:04.926Z,16.89
2019-05-11T12:17:55.464Z,16.76
2019-05-11T12:18:54.470Z,16.81
2019-05-11T12:19:54.462Z,16.75
2019-05-11T12:20:54.455Z,16.75
2019-05-11T12:21:54.431Z,16.64
2019-05-11T12:22:54.419Z,16.69
2019-05-11T12:23:54.406Z,16.74
2019-05-11T12:24:54.396Z,16.74
2019-05-11T12:25:54.384Z,16.81
2019-05-11T12:26:54.376Z,16.76
2019-05-11T12:27:54.383Z,16.87
2019-05-11T12:28:54.347Z,16.79
2019-05-11T12:29:54.333Z,16.74
2019-05-11T12:30:54.327Z,16.68
2019-05-11T12:31:54.318Z,16.79
2019-05-11T12:32:54.299Z,16.75
2019-05-11T12:33:54.308Z,16.74
2019-05-11T12:34:54.277Z,16.58
2019-05-11T12:35:54.269Z,16.58
2019-05-11T12:36:54.256Z,16.69
2019-05-11T12:37:54.245Z,16.60
2019-05-11T12:38:54.247Z,16.51
2019-05-11T12:39:54.226Z,16.38
2019-05-11T12:40:54.215Z,16.38
2019-05-11T12:41:54.203Z,16.28
2019-05-11T12:42:54.190Z,16.33
2019-05-11T12:43:54.240Z,16.13
2019-05-11T12:44:54.176Z,16.13
2019-05-11T12:45:54.161Z,16.17
2019-05-11T12:46:54.166Z,16.04
2019-05-11T12:47:54.141Z,16.04
2019-05-11T12:48:56.619Z,16.00
2019-05-11T12:49:54.126Z,15.95
2019-05-11T12:50:54.100Z,15.80
2019-05-11T12:51:54.089Z,15.75
2019-05-11T12:52:56.074Z,15.80
2019-05-11T12:53:54.069Z,15.75
2019-05-11T12:54:54.083Z,15.75
2019-05-11T12:55:54.057Z,15.83
2019-05-11T12:56:54.059Z,15.72
2019-05-11T12:57:54.025Z,15.72
2019-05-11T12:58:54.012Z,15.62
2019-05-11T12:59:54.017Z,15.54
2019-05-11T13:00:53.997Z,15.52
2019-05-11T13:01:53.985Z,15.47
2019-05-11T13:02:53.972Z,15.46